Norwegian Sky — C6PZ8 — position and weather

sailwx.info

Track history (hours):
 
Tides and Currents Weather Stations Pressure Air Temp Water Temp Dewpoint Dewpoint Depression Visibility Wind Speed Wind Dir Waves Ship Positions

Norwegian Sky (Norway)

Operator: Norwegian Cruise Line

Last reported at 2017-Nov-25 03:17 UTC. Time now 2017-Nov-25 04:02 UTC.
Position N 26°07' W 079°19'.

Length 259 m; draft 8.2 m.

Type: Ship. MMSI: 308865000.

Date/timePositionNaut miles runAvg speedWind from/ knotsBaromVisibWave heightAir tempDewpointWater temp
2017-Nov-25 03:17N 26°07' W 079°19'3 9.0
2017-Nov-25 03:00N 26°05' W 079°22'5 9.1
2017-Nov-25 02:30N 26°03' W 079°26'5 9.2
2017-Nov-25 02:00N 26°00' W 079°30'5 9.1
2017-Nov-25 01:30N 25°59' W 079°35'5 9.5
2017-Nov-25 01:00N 25°57' W 079°40'510.7
2017-Nov-25 00:30N 25°55' W 079°45'510.9
2017-Nov-25 00:00N 25°52' W 079°50'510.8
2017-Nov-24 23:31N 25°50' W 079°56'510.3
2017-Nov-24 23:00N 25°48' W 080°01'510.1
2017-Nov-24 22:31N 25°46' W 080°06'3 6.4
2017-Nov-24 21:58N 25°46' W 080°10'0 0.0
2017-Nov-24 21:25N 25°46' W 080°10'0 0.0
2017-Nov-24 20:58N 25°46' W 080°10'0 0.0
2017-Nov-24 20:27N 25°46' W 080°10'0 0.0
2017-Nov-24 19:57N 25°46' W 080°10'0 0.0
2017-Nov-24 19:30N 25°46' W 080°10'0 0.0
2017-Nov-24 19:00N 25°46' W 080°10'0 0.0
2017-Nov-24 18:30N 25°46' W 080°10'0 0.0
2017-Nov-24 17:59N 25°46' W 080°10'0 0.0
2017-Nov-24 17:29N 25°46' W 080°10'0 0.0
2017-Nov-24 16:59N 25°46' W 080°10'0 0.0
2017-Nov-24 16:29N 25°46' W 080°10'0 0.0
2017-Nov-24 15:58N 25°46' W 080°10'0 0.0
2017-Nov-24 15:22N 25°46' W 080°10'0 0.0
2017-Nov-24 14:58N 25°46' W 080°10'0 0.0
2017-Nov-24 14:28N 25°46' W 080°10'0 0.0
2017-Nov-24 13:58N 25°46' W 080°10'0 0.0
2017-Nov-24 13:30N 25°46' W 080°10'0 0.0
2017-Nov-24 13:00N 25°46' W 080°10'0 0.0
2017-Nov-24 12:30N 25°46' W 080°10'0 0.0
2017-Nov-24 12:00N 25°46' W 080°10'0 0.0
2017-Nov-24 11:30N 25°46' W 080°10'1 1.3
2017-Nov-24 11:01N 25°47' W 080°10'1 2.6
2017-Nov-24 10:31N 25°46' W 080°09'510.2
2017-Nov-24 10:00N 25°46' W 080°03'4 9.1
2017-Nov-24 09:31N 25°48' W 079°59'4 8.6
2017-Nov-24 09:01N 25°50' W 079°55'4 8.4
2017-Nov-24 08:30N 25°52' W 079°51'4 8.7
2017-Nov-24 08:00N 25°54' W 079°46'4 8.3
2017-Nov-24 07:30N 25°57' W 079°42'4 8.3
2017-Nov-24 07:00N 25°59' W 079°39'4 8.3
2017-Nov-24 06:30N 26°01' W 079°35'4 8.4
2017-Nov-24 06:00N 26°04' W 079°31'4 8.0
2017-Nov-24 05:30N 26°06' W 079°27'4 8.2
2017-Nov-24 05:00N 26°06' W 079°22'4 8.4
2017-Nov-24 04:30N 26°07' W 079°18'4 8.4
2017-Nov-24 04:00N 26°09' W 079°14'4 8.4
2017-Nov-24 03:30N 26°11' W 079°09'  
2017-Nov-18 01:14N 25°59' W 079°36'315.0
2017-Nov-18 01:00N 25°58' W 079°39'714.9
2017-Nov-18 00:30N 25°55' W 079°47'714.5
2017-Nov-18 00:00N 25°51' W 079°54'713.4
2017-Nov-17 23:30N 25°48' W 080°00'510.0
2017-Nov-17 23:00N 25°46' W 080°06'4 8.1
2017-Nov-17 22:30N 25°47' W 080°10'0 0.2
2017-Nov-17 22:00N 25°47' W 080°10'0 0.1
2017-Nov-17 21:28N 25°47' W 080°10'0 0.0
2017-Nov-17 20:58N 25°47' W 080°10'0 0.0
2017-Nov-17 20:25N 25°47' W 080°10'0 0.0
2017-Nov-17 20:00N 25°47' W 080°10'0 0.0
2017-Nov-17 19:30N 25°47' W 080°10'0 0.0
2017-Nov-17 19:00N 25°47' W 080°10'0 0.0
2017-Nov-17 18:30N 25°47' W 080°10'0 0.0
2017-Nov-17 18:00N 25°47' W 080°10'0 0.0
2017-Nov-17 17:29N 25°47' W 080°10'0 0.0
2017-Nov-17 16:59N 25°47' W 080°10'0 0.0
2017-Nov-17 16:29N 25°47' W 080°10'0 0.0
2017-Nov-17 15:59N 25°47' W 080°10'0 0.0
2017-Nov-17 15:28N 25°47' W 080°10'0 0.0
2017-Nov-17 14:58N 25°47' W 080°10'0 0.0
2017-Nov-17 14:28N 25°47' W 080°10'0 0.0
2017-Nov-17 13:58N 25°47' W 080°10'0 0.0
2017-Nov-17 13:28N 25°47' W 080°10'0 0.0
2017-Nov-17 13:00N 25°47' W 080°10'0 0.0
2017-Nov-17 12:30N 25°47' W 080°10'0 0.0
2017-Nov-17 12:00N 25°47' W 080°10'0 0.0
2017-Nov-17 11:30N 25°47' W 080°10'0 0.0
2017-Nov-17 11:01N 25°47' W 080°10'2 4.5
2017-Nov-17 10:30N 25°46' W 080°08'510.7
2017-Nov-17 10:01N 25°47' W 080°02'3 5.7
2017-Nov-17 09:30N 25°48' W 079°59'4 7.8
2017-Nov-17 09:01N 25°50' W 079°55'4 7.6
2017-Nov-17 08:31N 25°52' W 079°52'4 7.5
2017-Nov-17 08:01N 25°53' W 079°48'4 7.6
2017-Nov-17 07:30N 25°55' W 079°44'4 7.5
2017-Nov-17 07:01N 25°57' W 079°40'4 7.4
2017-Nov-17 06:31N 25°59' W 079°37'4 7.0
2017-Nov-17 06:01N 26°01' W 079°34'4 7.1
2017-Nov-17 05:31N 26°04' W 079°31'4 7.5
2017-Nov-17 05:01N 26°06' W 079°28'4 7.5
2017-Nov-17 04:31N 26°08' W 079°24'4 7.4
2017-Nov-17 04:00N 26°09' W 079°20'4 7.6
2017-Nov-17 03:29N 26°12' W 079°17'  
Track history (hours):
 
Tides and Currents Weather Stations Pressure Air Temp Water Temp Dewpoint Dewpoint Depression Visibility Wind Speed Wind Dir Waves Ship Positions

Norwegian Sky (Norway)

Operator: Norwegian Cruise Line

Last reported at 2017-Nov-25 03:17 UTC. Time now 2017-Nov-25 04:02 UTC.
Position N 26°07' W 079°19'.

Length 259 m; draft 8.2 m.

Type: Ship. MMSI: 308865000.

Date/timePositionNaut miles runAvg speedWind from/ knotsBaromVisibWave heightAir tempDewpointWater temp
2017-Nov-25 03:17N 26°07' W 079°19'3 9.0
2017-Nov-25 03:00N 26°05' W 079°22'5 9.1
2017-Nov-25 02:30N 26°03' W 079°26'5 9.2
2017-Nov-25 02:00N 26°00' W 079°30'5 9.1
2017-Nov-25 01:30N 25°59' W 079°35'5 9.5
2017-Nov-25 01:00N 25°57' W 079°40'510.7
2017-Nov-25 00:30N 25°55' W 079°45'510.9
2017-Nov-25 00:00N 25°52' W 079°50'510.8
2017-Nov-24 23:31N 25°50' W 079°56'510.3
2017-Nov-24 23:00N 25°48' W 080°01'510.1
2017-Nov-24 22:31N 25°46' W 080°06'3 6.4
2017-Nov-24 21:58N 25°46' W 080°10'0 0.0
2017-Nov-24 21:25N 25°46' W 080°10'0 0.0
2017-Nov-24 20:58N 25°46' W 080°10'0 0.0
2017-Nov-24 20:27N 25°46' W 080°10'0 0.0
2017-Nov-24 19:57N 25°46' W 080°10'0 0.0
2017-Nov-24 19:30N 25°46' W 080°10'0 0.0
2017-Nov-24 19:00N 25°46' W 080°10'0 0.0
2017-Nov-24 18:30N 25°46' W 080°10'0 0.0
2017-Nov-24 17:59N 25°46' W 080°10'0 0.0
2017-Nov-24 17:29N 25°46' W 080°10'0 0.0
2017-Nov-24 16:59N 25°46' W 080°10'0 0.0
2017-Nov-24 16:29N 25°46' W 080°10'0 0.0
2017-Nov-24 15:58N 25°46' W 080°10'0 0.0
2017-Nov-24 15:22N 25°46' W 080°10'0 0.0
2017-Nov-24 14:58N 25°46' W 080°10'0 0.0
2017-Nov-24 14:28N 25°46' W 080°10'0 0.0
2017-Nov-24 13:58N 25°46' W 080°10'0 0.0
2017-Nov-24 13:30N 25°46' W 080°10'0 0.0
2017-Nov-24 13:00N 25°46' W 080°10'0 0.0
2017-Nov-24 12:30N 25°46' W 080°10'0 0.0
2017-Nov-24 12:00N 25°46' W 080°10'0 0.0
2017-Nov-24 11:30N 25°46' W 080°10'1 1.3
2017-Nov-24 11:01N 25°47' W 080°10'1 2.6
2017-Nov-24 10:31N 25°46' W 080°09'510.2
2017-Nov-24 10:00N 25°46' W 080°03'4 9.1
2017-Nov-24 09:31N 25°48' W 079°59'4 8.6
2017-Nov-24 09:01N 25°50' W 079°55'4 8.4
2017-Nov-24 08:30N 25°52' W 079°51'4 8.7
2017-Nov-24 08:00N 25°54' W 079°46'4 8.3
2017-Nov-24 07:30N 25°57' W 079°42'4 8.3
2017-Nov-24 07:00N 25°59' W 079°39'4 8.3
2017-Nov-24 06:30N 26°01' W 079°35'4 8.4
2017-Nov-24 06:00N 26°04' W 079°31'4 8.0
2017-Nov-24 05:30N 26°06' W 079°27'4 8.2
2017-Nov-24 05:00N 26°06' W 079°22'4 8.4
2017-Nov-24 04:30N 26°07' W 079°18'4 8.4
2017-Nov-24 04:00N 26°09' W 079°14'4 8.4
2017-Nov-24 03:30N 26°11' W 079°09'  
2017-Nov-18 01:14N 25°59' W 079°36'315.0
2017-Nov-18 01:00N 25°58' W 079°39'714.9
2017-Nov-18 00:30N 25°55' W 079°47'714.5
2017-Nov-18 00:00N 25°51' W 079°54'713.4
2017-Nov-17 23:30N 25°48' W 080°00'510.0
2017-Nov-17 23:00N 25°46' W 080°06'4 8.1
2017-Nov-17 22:30N 25°47' W 080°10'0 0.2
2017-Nov-17 22:00N 25°47' W 080°10'0 0.1
2017-Nov-17 21:28N 25°47' W 080°10'0 0.0
2017-Nov-17 20:58N 25°47' W 080°10'0 0.0
2017-Nov-17 20:25N 25°47' W 080°10'0 0.0
2017-Nov-17 20:00N 25°47' W 080°10'0 0.0
2017-Nov-17 19:30N 25°47' W 080°10'0 0.0
2017-Nov-17 19:00N 25°47' W 080°10'0 0.0
2017-Nov-17 18:30N 25°47' W 080°10'0 0.0
2017-Nov-17 18:00N 25°47' W 080°10'0 0.0
2017-Nov-17 17:29N 25°47' W 080°10'0 0.0
2017-Nov-17 16:59N 25°47' W 080°10'0 0.0
2017-Nov-17 16:29N 25°47' W 080°10'0 0.0
2017-Nov-17 15:59N 25°47' W 080°10'0 0.0
2017-Nov-17 15:28N 25°47' W 080°10'0 0.0
2017-Nov-17 14:58N 25°47' W 080°10'0 0.0
2017-Nov-17 14:28N 25°47' W 080°10'0 0.0
2017-Nov-17 13:58N 25°47' W 080°10'0 0.0
2017-Nov-17 13:28N 25°47' W 080°10'0 0.0
2017-Nov-17 13:00N 25°47' W 080°10'0 0.0
2017-Nov-17 12:30N 25°47' W 080°10'0 0.0
2017-Nov-17 12:00N 25°47' W 080°10'0 0.0
2017-Nov-17 11:30N 25°47' W 080°10'0 0.0
2017-Nov-17 11:01N 25°47' W 080°10'2 4.5
2017-Nov-17 10:30N 25°46' W 080°08'510.7
2017-Nov-17 10:01N 25°47' W 080°02'3 5.7
2017-Nov-17 09:30N 25°48' W 079°59'4 7.8
2017-Nov-17 09:01N 25°50' W 079°55'4 7.6
2017-Nov-17 08:31N 25°52' W 079°52'4 7.5
2017-Nov-17 08:01N 25°53' W 079°48'4 7.6
2017-Nov-17 07:30N 25°55' W 079°44'4 7.5
2017-Nov-17 07:01N 25°57' W 079°40'4 7.4
2017-Nov-17 06:31N 25°59' W 079°37'4 7.0
2017-Nov-17 06:01N 26°01' W 079°34'4 7.1
2017-Nov-17 05:31N 26°04' W 079°31'4 7.5
2017-Nov-17 05:01N 26°06' W 079°28'4 7.5
2017-Nov-17 04:31N 26°08' W 079°24'4 7.4
2017-Nov-17 04:00N 26°09' W 079°20'4 7.6
2017-Nov-17 03:29N 26°12' W 079°17'  

Dump ship's entire track history